createdAt,value
2022-11-11T00:05:13.466Z,101975.89
2022-11-11T00:10:40.927Z,101967.80
2022-11-11T00:16:09.709Z,101965.70
2022-11-11T00:21:52.109Z,101976.84
2022-11-11T00:27:18.536Z,101985.21
2022-11-11T00:32:45.304Z,101987.13
2022-11-11T00:38:34.588Z,101979.84
2022-11-11T00:44:01.447Z,101974.45
2022-11-11T00:49:45.750Z,101970.42
2022-11-11T00:55:12.402Z,101952.79
2022-11-11T01:00:38.921Z,101940.09
2022-11-11T01:06:06.255Z,101949.27
2022-11-11T01:11:32.794Z,101951.73
2022-11-11T01:16:58.926Z,101975.58
2022-11-11T01:22:25.552Z,101986.70
2022-11-11T01:27:55.458Z,101985.88
2022-11-11T01:33:22.417Z,101987.30
2022-11-11T01:38:52.747Z,101988.34
2022-11-11T01:44:46.728Z,101985.93
2022-11-11T01:50:13.785Z,101973.63
2022-11-11T01:55:40.969Z,101965.41
2022-11-11T02:01:11.949Z,101945.88
2022-11-11T02:06:39.951Z,101947.08
2022-11-11T02:12:28.454Z,101965.91
2022-11-11T02:17:55.679Z,101957.61
2022-11-11T02:23:29.781Z,101948.27
2022-11-11T02:28:58.255Z,101943.14
2022-11-11T02:34:31.765Z,101945.02
2022-11-11T02:40:05.382Z,101950.42
2022-11-11T02:45:32.704Z,101949.52
2022-11-11T02:50:59.623Z,101954.55
2022-11-11T02:56:39.738Z,101960.61
2022-11-11T03:02:06.794Z,101961.26
2022-11-11T03:07:33.384Z,101960.83
2022-11-11T03:13:00.301Z,101964.99
2022-11-11T03:18:26.980Z,101977.88
2022-11-11T03:23:53.969Z,101991.08
2022-11-11T03:29:20.447Z,102003.52
2022-11-11T03:34:46.767Z,102007.52
2022-11-11T03:40:14.621Z,102003.64
2022-11-11T03:45:41.595Z,102004.17
2022-11-11T03:51:08.415Z,102013.64
2022-11-11T03:56:34.937Z,102009.54
2022-11-11T04:02:18.648Z,102000.02
2022-11-11T04:08:02.932Z,101995.10
2022-11-11T04:13:47.853Z,101985.04
2022-11-11T04:19:31.862Z,101985.58
2022-11-11T04:25:16.349Z,101987.96
2022-11-11T04:30:42.238Z,101982.83
2022-11-11T04:36:09.614Z,101984.41
2022-11-11T04:42:01.648Z,101984.89
2022-11-11T04:47:22.129Z,101981.42
2022-11-11T04:52:48.870Z,101981.15
2022-11-11T04:58:16.324Z,101974.61
2022-11-11T05:03:42.572Z,101972.89
2022-11-11T05:09:09.541Z,101970.19
2022-11-11T05:14:53.622Z,101967.79
2022-11-11T05:20:39.282Z,101972.56
2022-11-11T05:26:06.085Z,101966.71
2022-11-11T05:31:32.841Z,101962.11
2022-11-11T05:36:59.131Z,101961.52
2022-11-11T05:42:25.494Z,101965.45
2022-11-11T05:47:52.255Z,101963.61
2022-11-11T05:53:24.701Z,101959.11
2022-11-11T05:58:52.172Z,101965.73
2022-11-11T06:04:18.725Z,101954.83
2022-11-11T06:09:45.657Z,101956.63
2022-11-11T06:15:13.620Z,101959.73
2022-11-11T06:20:40.481Z,101963.40
2022-11-11T06:26:17.029Z,101963.45
2022-11-11T06:31:43.588Z,101971.16
2022-11-11T06:37:10.326Z,101973.95
2022-11-11T06:42:40.474Z,101977.88
2022-11-11T06:48:07.861Z,101988.71
2022-11-11T06:53:37.008Z,101993.48
2022-11-11T06:59:03.731Z,101998.42
2022-11-11T07:04:30.466Z,102000.05
2022-11-11T07:09:57.083Z,102003.67
2022-11-11T07:15:23.799Z,102010.77
2022-11-11T07:20:52.150Z,102011.44
2022-11-11T07:26:21.847Z,102012.33
2022-11-11T07:31:48.462Z,102021.02
2022-11-11T07:37:15.158Z,102026.44
2022-11-11T07:42:42.109Z,102029.94
2022-11-11T07:48:08.794Z,102029.02
2022-11-11T07:53:35.324Z,102030.98
2022-11-11T07:59:01.946Z,102032.44
2022-11-11T08:04:31.437Z,102038.61
2022-11-11T08:09:57.933Z,102038.77
2022-11-11T08:15:24.907Z,102046.02
2022-11-11T08:20:54.822Z,102054.18
2022-11-11T08:26:27.904Z,102051.96
2022-11-11T08:31:57.915Z,102059.90
2022-11-11T08:37:23.070Z,102062.66
2022-11-11T08:42:49.625Z,102061.75
2022-11-11T08:48:15.907Z,102072.59
2022-11-11T08:53:42.106Z,102075.92
2022-11-11T08:59:10.125Z,102073.27
2022-11-11T09:04:45.193Z,102085.92
2022-11-11T09:10:13.941Z,102093.16
2022-11-11T09:15:40.611Z,102084.23
2022-11-11T09:21:07.958Z,102080.88
2022-11-11T09:26:34.429Z,102074.17
2022-11-11T09:32:02.441Z,102077.34
2022-11-11T09:37:29.161Z,102073.91
2022-11-11T09:43:11.308Z,102085.83
2022-11-11T09:48:52.116Z,102080.21
2022-11-11T09:54:27.344Z,102068.51
2022-11-11T09:59:57.639Z,102055.64
2022-11-11T10:05:27.314Z,102056.82
2022-11-11T10:10:56.049Z,102044.13
2022-11-11T10:16:32.160Z,102037.70
2022-11-11T10:22:12.636Z,102036.52
2022-11-11T10:27:41.511Z,102023.55
2022-11-11T10:33:17.328Z,102026.48
2022-11-11T10:38:52.315Z,102035.79
2022-11-11T10:44:27.243Z,102039.45
2022-11-11T10:50:01.062Z,102035.88
2022-11-11T10:55:33.512Z,102036.45
2022-11-11T11:01:02.587Z,102043.44
2022-11-11T11:06:33.263Z,102054.10
2022-11-11T11:12:06.322Z,102066.16
2022-11-11T11:17:41.111Z,102075.15
2022-11-11T11:23:07.458Z,102077.48
2022-11-11T11:28:35.674Z,102069.76
2022-11-11T11:34:05.919Z,102071.16
2022-11-11T11:39:41.573Z,102085.36
2022-11-11T11:45:28.666Z,102087.69
2022-11-11T11:51:05.821Z,102085.58
2022-11-11T11:56:39.619Z,102071.95
2022-11-11T12:02:17.787Z,102062.98
2022-11-11T12:08:02.860Z,102054.86
2022-11-11T12:13:42.421Z,102056.10
2022-11-11T12:19:26.936Z,102060.77
2022-11-11T12:25:03.588Z,102059.20
2022-11-11T12:30:30.925Z,102058.81
2022-11-11T12:36:09.200Z,102054.86
2022-11-11T12:41:53.609Z,102050.96
2022-11-11T12:47:35.431Z,102057.67
2022-11-11T12:53:16.620Z,102054.09
2022-11-11T12:58:48.791Z,102056.05
2022-11-11T13:04:34.409Z,102056.27
2022-11-11T13:10:18.179Z,102050.85
2022-11-11T13:15:45.685Z,102044.02
2022-11-11T13:21:16.149Z,102053.77
2022-11-11T13:26:50.491Z,102066.63
2022-11-11T13:32:24.843Z,102069.00
2022-11-11T13:37:51.690Z,102063.52
2022-11-11T13:43:26.821Z,102057.99
2022-11-11T13:48:56.478Z,102062.49
2022-11-11T13:54:30.929Z,102071.05
2022-11-11T14:00:01.844Z,102075.27
2022-11-11T14:05:28.534Z,102078.84
2022-11-11T14:10:59.298Z,102077.55
2022-11-11T14:16:56.771Z,102076.14
2022-11-11T14:22:35.074Z,102083.60
2022-11-11T14:28:02.165Z,102093.40
2022-11-11T14:33:43.653Z,102098.02
2022-11-11T14:39:20.202Z,102095.41
2022-11-11T14:44:47.010Z,102105.15
2022-11-11T14:50:45.731Z,102105.30
2022-11-11T14:56:19.482Z,102108.94
2022-11-11T15:01:48.218Z,102117.54
2022-11-11T15:07:28.167Z,102122.95
2022-11-11T15:13:26.179Z,102123.05
2022-11-11T15:19:23.572Z,102124.73
2022-11-11T15:25:01.701Z,102124.61
2022-11-11T15:30:46.555Z,102127.95
2022-11-11T15:36:19.652Z,102134.71
2022-11-11T15:41:52.476Z,102145.29
2022-11-11T15:47:21.249Z,102154.92
2022-11-11T15:52:45.911Z,102152.10
2022-11-11T15:58:16.913Z,102154.02
2022-11-11T16:03:45.282Z,102163.11
2022-11-11T16:09:11.597Z,102165.42
2022-11-11T16:14:44.872Z,102169.45
2022-11-11T16:20:17.123Z,102171.64
2022-11-11T16:25:43.639Z,102181.77
2022-11-11T16:31:44.708Z,102182.52
2022-11-11T16:37:16.018Z,102183.88
2022-11-11T16:42:42.519Z,102174.94
2022-11-11T16:48:43.833Z,102185.06
2022-11-11T16:54:15.498Z,102182.73
2022-11-11T16:59:48.152Z,102177.70
2022-11-11T17:05:14.915Z,102180.96
2022-11-11T17:10:42.513Z,102180.09
2022-11-11T17:16:10.052Z,102185.02
2022-11-11T17:21:36.954Z,102180.05
2022-11-11T17:27:04.174Z,102176.29
2022-11-11T17:32:30.781Z,102185.48
2022-11-11T17:38:00.254Z,102188.66
2022-11-11T17:43:27.738Z,102196.48
2022-11-11T17:48:57.776Z,102202.60
2022-11-11T17:54:27.373Z,102208.66
2022-11-11T17:59:53.802Z,102214.23
2022-11-11T18:05:20.504Z,102213.05
2022-11-11T18:10:46.781Z,102212.17
2022-11-11T18:16:18.527Z,102215.22
2022-11-11T18:21:44.989Z,102219.70
2022-11-11T18:27:11.310Z,102225.41
2022-11-11T18:32:37.675Z,102231.23
2022-11-11T18:38:05.095Z,102225.57
2022-11-11T18:43:34.286Z,102223.17
2022-11-11T18:49:03.223Z,102223.98
2022-11-11T18:54:32.101Z,102228.66
2022-11-11T18:59:58.573Z,102232.80
2022-11-11T19:05:24.858Z,102240.29
2022-11-11T19:10:52.275Z,102244.95
2022-11-11T19:16:22.478Z,102242.88
2022-11-11T19:21:49.159Z,102249.99
2022-11-11T19:27:15.907Z,102252.42
2022-11-11T19:32:43.658Z,102255.30
2022-11-11T19:38:15.386Z,102257.08
2022-11-11T19:43:42.734Z,102251.48
2022-11-11T19:49:11.896Z,102255.27
2022-11-11T19:54:38.452Z,102262.09
2022-11-11T20:00:08.658Z,102270.17
2022-11-11T20:05:55.374Z,102279.49
2022-11-11T20:11:22.723Z,102282.67
2022-11-11T20:16:49.391Z,102281.89
2022-11-11T20:22:16.146Z,102280.42
2022-11-11T20:27:42.865Z,102283.77
2022-11-11T20:33:09.458Z,102288.34
2022-11-11T20:38:36.272Z,102290.20
2022-11-11T20:44:03.030Z,102290.08
2022-11-11T20:49:29.527Z,102284.58
2022-11-11T20:54:56.077Z,102286.84
2022-11-11T21:00:22.951Z,102287.52
2022-11-11T21:05:49.720Z,102277.73
2022-11-11T21:11:18.672Z,102273.83
2022-11-11T21:16:43.324Z,102275.40
2022-11-11T21:22:10.521Z,102278.36
2022-11-11T21:27:38.909Z,102278.42
2022-11-11T21:33:08.226Z,102274.76
2022-11-11T21:38:35.713Z,102274.79
2022-11-11T21:44:02.402Z,102274.85
2022-11-11T21:49:29.294Z,102276.13
2022-11-11T21:54:55.860Z,102277.95
2022-11-11T22:00:23.177Z,102282.23
2022-11-11T22:05:49.413Z,102278.86
2022-11-11T22:11:18.179Z,102277.27
2022-11-11T22:16:44.561Z,102279.70
2022-11-11T22:22:13.292Z,102284.96
2022-11-11T22:27:42.962Z,102287.36
2022-11-11T22:33:09.602Z,102291.80
2022-11-11T22:38:36.242Z,102290.69
2022-11-11T22:44:03.148Z,102290.25
2022-11-11T22:49:31.848Z,102290.52
2022-11-11T22:54:58.116Z,102287.39
2022-11-11T23:00:24.525Z,102285.52
2022-11-11T23:05:51.128Z,102291.86
2022-11-11T23:11:19.371Z,102290.56
2022-11-11T23:16:48.543Z,102287.92
2022-11-11T23:22:14.683Z,102290.27
2022-11-11T23:27:41.388Z,102284.36
2022-11-11T23:33:07.664Z,102281.37
2022-11-11T23:38:35.935Z,102279.49
2022-11-11T23:44:02.153Z,102277.89
2022-11-11T23:49:29.165Z,102277.04
2022-11-11T23:54:55.585Z,102278.35
